»·PEaware :: SWA1864 KPHX-KSAN

SWA1864 :: KPHX-KSAN

FLIGHT INFORMATION

Flight Status: Arrived
Operator:
Southwest Airlines
More flights by this operator :: More flights under this callsign
Pilot: Ethan P. (16704)
Aircraft: BOEING 737-800
(B738)
More flights by this aircraft type
Origin: KPHX Phoenix Sky Harbor Intl
United States
Destination: KSAN San Diego Intl-Lindbergh
United States
More flights between these airports :: More routes between these airports
Route: JUDTH6 MOHAK J2 HOGGZ LUCKI1
File this flight plan on PilotEdge
Remarks:
Altitude:
(Current/Filed)
32,000ft
Speed:
(Current/Filed)
370kts
Departed: 25-Sep-17 09:02 PM
Arrived: 25-Sep-17 09:58 PM
Distance/Time
Traveled:
264nm/0:55
Distance/Time
To Go:
Arrived

Flight Plot

Page will automatically refresh every two minutes.

Flight plan parsing failed; only flown route is shown


Map Options




Map Legend


Flown Route
Filed Route
Departure Airport
Arrival Airport
Navaid (VOR, NDB)
Fix

Horizontal Profiles

Position Reports

Time Latitude Longitude Heading Altitude Ground
Speed
25-Sep-17 20:41 33.433701 -111.998729 322 1125ft 0kts
25-Sep-17 20:42 33.433701 -111.998729 322 1125ft 0kts
25-Sep-17 20:43 33.433701 -111.998729 322 1125ft 0kts
25-Sep-17 20:44 33.433701 -111.998729 322 1125ft 0kts
25-Sep-17 20:45 33.433701 -111.998729 322 1125ft 0kts
25-Sep-17 20:46 33.433701 -111.998729 322 1125ft 0kts
25-Sep-17 20:47 33.433701 -111.998729 322 1125ft 0kts
25-Sep-17 20:48 33.433701 -111.998729 322 1125ft 0kts
25-Sep-17 20:49 33.433701 -111.998729 322 1125ft 0kts
25-Sep-17 20:50 33.433701 -111.998729 322 1125ft 0kts
25-Sep-17 20:51 33.433701 -111.998729 322 1125ft 0kts
25-Sep-17 20:52 33.433701 -111.998729 322 1125ft 0kts
25-Sep-17 20:53 33.433700 -111.998729 322 1125ft 0kts
25-Sep-17 20:54 33.433624 -111.998400 241 1125ft 2kts
25-Sep-17 20:55 33.433962 -111.998254 182 1125ft 2kts
25-Sep-17 20:56 33.434185 -111.998238 180 1126ft 0kts
25-Sep-17 20:57 33.434184 -111.998238 180 1126ft 0kts
25-Sep-17 20:58 33.434184 -111.998238 180 1126ft 0kts
25-Sep-17 20:59 33.434184 -111.998238 180 1126ft 0kts
25-Sep-17 21:00 33.433598 -111.998240 180 1124ft 10kts
25-Sep-17 21:01 33.432135 -111.997442 89 1124ft 10kts
25-Sep-17 21:02 33.431946 -111.993605 134 1124ft 0kts
25-Sep-17 21:03 33.431946 -111.993605 134 1124ft 0kts
25-Sep-17 21:04 33.431861 -111.993524 146 1124ft 4kts
25-Sep-17 21:05 33.431053 -111.994589 270 1124ft 22kts
25-Sep-17 21:06 33.424854 -112.024906 240 2240ft 193kts
25-Sep-17 21:07 33.403488 -112.075481 245 4662ft 259kts
25-Sep-17 21:08 33.378664 -112.142102 247 6952ft 308kts
25-Sep-17 21:09 33.351529 -112.217798 246 9335ft 320kts
25-Sep-17 21:10 33.323313 -112.297072 246 11748ft 332kts
25-Sep-17 21:11 33.291884 -112.385088 246 14320ft 345kts
25-Sep-17 21:12 33.259162 -112.476573 245 16902ft 357kts
25-Sep-17 21:13 33.224021 -112.574451 244 19577ft 365kts
25-Sep-17 21:14 33.185811 -112.680355 243 20683ft 374kts
25-Sep-17 21:15 33.146903 -112.787965 243 20686ft 373kts
25-Sep-17 21:16 33.107804 -112.895676 248 21110ft 362kts
25-Sep-17 21:17 33.068350 -113.003858 249 24086ft 369kts
25-Sep-17 21:18 33.029463 -113.110688 249 26949ft 366kts
25-Sep-17 21:19 32.990267 -113.217793 249 29878ft 349kts
25-Sep-17 21:20 32.954960 -113.313978 250 31925ft 344kts
25-Sep-17 21:21 32.919520 -113.410449 249 31965ft 397kts
25-Sep-17 21:22 32.874988 -113.530989 249 31957ft 455kts
25-Sep-17 21:23 32.823940 -113.669366 250 31938ft 508kts
25-Sep-17 21:24 32.796938 -113.826142 262 31927ft 525kts
25-Sep-17 21:25 32.777129 -113.973957 269 31908ft 522kts
25-Sep-17 21:26 32.774164 -114.122728 271 31931ft 522kts
25-Sep-17 21:27 32.771758 -114.284947 271 31931ft 522kts
25-Sep-17 21:28 32.769556 -114.424520 271 31933ft 522kts
25-Sep-17 21:29 32.767037 -114.572101 271 31936ft 522kts
25-Sep-17 21:30 32.764356 -114.719857 270 31928ft 522kts
25-Sep-17 21:31 32.761218 -114.881023 270 30474ft 510kts
25-Sep-17 21:32 32.757861 -115.039570 271 27515ft 485kts
25-Sep-17 21:33 32.754547 -115.190360 272 24614ft 471kts
25-Sep-17 21:34 32.751484 -115.329378 272 21860ft 455kts
25-Sep-17 21:35 32.748661 -115.448411 271 19424ft 441kts
25-Sep-17 21:36 32.745867 -115.560083 270 17069ft 427kts
25-Sep-17 21:37 32.742924 -115.673740 269 14571ft 406kts
25-Sep-17 21:38 32.740087 -115.780184 269 12105ft 387kts
25-Sep-17 21:39 32.737083 -115.886621 269 9982ft 358kts
25-Sep-17 21:40 32.734662 -115.970803 269 9932ft 323kts
25-Sep-17 21:41 32.731745 -116.071322 269 9945ft 290kts
25-Sep-17 21:42 32.729601 -116.143983 269 9944ft 291kts
25-Sep-17 21:43 32.727147 -116.223935 269 9455ft 280kts
25-Sep-17 21:44 32.724723 -116.303394 269 7989ft 277kts
25-Sep-17 21:45 32.722251 -116.381430 269 8017ft 260kts
25-Sep-17 21:46 32.720060 -116.449366 269 8024ft 261kts
25-Sep-17 21:47 32.717817 -116.517564 269 8021ft 261kts
25-Sep-17 21:48 32.714879 -116.606060 268 6182ft 295kts
25-Sep-17 21:49 32.701813 -116.662206 250 6003ft 258kts
25-Sep-17 21:50 32.683186 -116.723956 250 5076ft 258kts
25-Sep-17 21:51 32.664726 -116.785535 250 5035ft 212kts
25-Sep-17 21:52 32.652641 -116.838303 279 4983ft 216kts
25-Sep-17 21:53 32.660544 -116.890177 280 4988ft 205kts
25-Sep-17 21:54 32.669023 -116.940295 291 4015ft 197kts
25-Sep-17 21:55 32.682222 -116.982764 290 3996ft 202kts
25-Sep-17 21:56 32.693117 -117.023548 286 3992ft 191kts
25-Sep-17 21:57 32.702839 -117.063368 286 3686ft 197kts
25-Sep-17 21:58 32.712155 -117.101650 286 2066ft 189kts
25-Sep-17 21:59 32.719863 -117.133276 286 1714ft 169kts
25-Sep-17 22:00 32.728154 -117.166950 285 473ft 161kts
25-Sep-17 22:01 32.733693 -117.190317 285 22ft 49kts
25-Sep-17 22:02 32.734087 -117.195442 253 21ft 18kts
25-Sep-17 22:03 32.733205 -117.197221 186 19ft 6kts
25-Sep-17 22:04 32.732853 -117.197087 146 19ft 0kts
25-Sep-17 22:05 32.732779 -117.197015 138 19ft 0kts
25-Sep-17 22:06 32.732779 -117.197016 138 19ft 0kts
25-Sep-17 22:07 32.732779 -117.197016 138 19ft 0kts
25-Sep-17 22:08 32.732779 -117.197016 138 19ft 0kts

Navigation Log

Ident Type
Flight plan parsing failed, navigation log unavailable